Time;durP1;ratioP1;P1;durP2;ratioP2;P2;SDS_P1;SDS_P2;PMS_P1;PMS_P2;Temp;Humidity;BMP_temperature;BMP_pressure;BME280_temperature;BME280_humidity;BME280_pressure;Samples;Min_cycle;Max_cycle;Signal;HPM_P1;HPM_P2
2022/05/05 00:01:40;;;;;;;8.55;4.50;;;;;;;;;;5048288;28;20025;-67
2022/05/05 00:04:06;;;;;;;6.95;4.22;;;;;;;;;;5044117;28;20030;-68
2022/05/05 00:06:33;;;;;;;6.28;4.40;;;;;;;;;;5022475;28;20383;-68
2022/05/05 00:08:59;;;;;;;4.40;3.70;;;;;;;;;;5031865;28;20037;-67
2022/05/05 00:14:28;;;;;;;17.30;4.15;;;;;;;;;;5033566;28;20560;-67
2022/05/05 00:17:02;;;;;;;6.25;3.78;;;;;;;;;;5041760;28;20025;-68
2022/05/05 00:19:29;;;;;;;7.18;3.58;;;;;;;;;;5022666;28;20025;-67
2022/05/05 00:21:56;;;;;;;5.03;3.30;;;;;;;;;;5037804;28;20035;-68
2022/05/05 00:24:22;;;;;;;5.18;3.88;;;;;;;;;;5016217;28;20048;-67
2022/05/05 00:26:48;;;;;;;4.00;3.22;;;;;;;;;;5040628;28;20076;-68
2022/05/05 00:29:14;;;;;;;5.90;3.55;;;;;;;;;;5027459;28;20036;-67
2022/05/05 00:31:40;;;;;;;7.10;4.05;;;;;;;;;;5046700;28;20068;-67
2022/05/05 00:34:06;;;;;;;5.32;3.97;;;;;;;;;;5051260;28;20521;-67
2022/05/05 00:36:32;;;;;;;7.05;4.63;;;;;;;;;;5044331;28;20502;-67
2022/05/05 00:38:58;;;;;;;5.50;4.10;;;;;;;;;;5045087;28;20418;-68
2022/05/05 00:41:24;;;;;;;8.27;4.45;;;;;;;;;;5049345;28;20564;-68
2022/05/05 00:43:51;;;;;;;5.78;4.05;;;;;;;;;;5023349;28;20025;-68
2022/05/05 00:46:17;;;;;;;4.90;3.72;;;;;;;;;;5035920;28;20025;-68
2022/05/05 00:48:43;;;;;;;8.00;3.83;;;;;;;;;;5020399;28;20036;-67
2022/05/05 00:51:10;;;;;;;5.47;3.95;;;;;;;;;;5021775;28;20507;-67
2022/05/05 00:53:36;;;;;;;5.47;3.78;;;;;;;;;;5044310;28;20113;-69
2022/05/05 00:56:06;;;;;;;8.52;3.40;;;;;;;;;;5042639;28;20021;-67
2022/05/05 00:58:32;;;;;;;4.38;3.47;;;;;;;;;;5040810;28;20018;-68
2022/05/05 01:00:59;;;;;;;5.90;4.05;;;;;;;;;;5041762;28;20072;-68
2022/05/05 01:03:25;;;;;;;6.95;3.60;;;;;;;;;;5019201;28;20032;-66
2022/05/05 01:05:51;;;;;;;4.68;3.28;;;;;;;;;;5031264;28;20490;-68
2022/05/05 01:08:18;;;;;;;6.40;3.42;;;;;;;;;;5022184;28;20029;-68
2022/05/05 01:10:45;;;;;;;7.00;3.40;;;;;;;;;;5021330;28;20082;-68
2022/05/05 01:13:11;;;;;;;5.00;3.70;;;;;;;;;;5052400;28;20048;-67
2022/05/05 01:15:37;;;;;;;8.73;3.80;;;;;;;;;;5052947;28;20028;-67
2022/05/05 01:18:03;;;;;;;4.38;3.30;;;;;;;;;;5015661;28;20108;-67
2022/05/05 01:20:29;;;;;;;13.90;4.05;;;;;;;;;;5022614;28;20013;-68
2022/05/05 01:22:55;;;;;;;7.53;3.67;;;;;;;;;;5047655;28;20033;-68
2022/05/05 01:28:13;;;;;;;7.35;4.18;;;;;;;;;;5052386;28;20121;-68
2022/05/05 01:30:40;;;;;;;6.38;4.00;;;;;;;;;;5017590;28;20141;-67
2022/05/05 01:33:10;;;;;;;7.78;4.13;;;;;;;;;;5013538;28;20052;-67
2022/05/05 01:35:36;;;;;;;14.70;4.25;;;;;;;;;;5047086;28;20021;-67
2022/05/05 01:38:02;;;;;;;8.43;4.30;;;;;;;;;;5032474;28;20028;-67
2022/05/05 01:40:29;;;;;;;7.35;4.45;;;;;;;;;;5044321;28;20108;-67
2022/05/05 01:42:55;;;;;;;5.70;4.03;;;;;;;;;;5038125;28;20504;-67
2022/05/05 01:45:21;;;;;;;6.70;4.40;;;;;;;;;;5051335;28;20017;-68
2022/05/05 01:47:47;;;;;;;7.38;3.65;;;;;;;;;;5034125;28;20074;-67
2022/05/05 01:50:13;;;;;;;5.60;3.63;;;;;;;;;;5024593;28;20060;-67
2022/05/05 01:52:39;;;;;;;6.00;4.03;;;;;;;;;;5025317;28;20406;-68
2022/05/05 01:55:05;;;;;;;5.65;3.63;;;;;;;;;;5021921;28;20493;-67
2022/05/05 01:57:31;;;;;;;6.95;3.60;;;;;;;;;;5037272;28;20017;-67
2022/05/05 02:00:00;;;;;;;9.65;3.78;;;;;;;;;;5031661;28;20480;-66
2022/05/05 02:02:26;;;;;;;6.05;3.72;;;;;;;;;;5008232;28;20033;-68
2022/05/05 02:04:53;;;;;;;6.05;4.05;;;;;;;;;;5038676;28;20615;-67
2022/05/05 02:07:19;;;;;;;6.38;3.78;;;;;;;;;;5025608;28;20033;-67
2022/05/05 02:09:45;;;;;;;8.43;3.90;;;;;;;;;;5031750;28;20382;-67
2022/05/05 02:12:11;;;;;;;14.82;4.20;;;;;;;;;;5048060;28;20021;-67
2022/05/05 02:14:37;;;;;;;6.22;4.05;;;;;;;;;;5014320;28;20026;-67
2022/05/05 02:17:03;;;;;;;8.73;4.13;;;;;;;;;;5031136;28;20048;-68
2022/05/05 02:19:29;;;;;;;6.85;4.60;;;;;;;;;;5023615;28;20034;-67
2022/05/05 02:21:55;;;;;;;7.53;4.00;;;;;;;;;;5030356;28;20025;-67
2022/05/05 02:24:21;;;;;;;6.75;3.88;;;;;;;;;;5042303;28;20109;-67
2022/05/05 02:26:48;;;;;;;6.95;4.57;;;;;;;;;;5036855;28;20025;-67
2022/05/05 02:29:21;;;;;;;8.52;3.95;;;;;;;;;;5021776;28;20040;-67
2022/05/05 02:31:48;;;;;;;7.20;4.30;;;;;;;;;;5012981;28;20046;-68
2022/05/05 02:34:15;;;;;;;5.63;3.95;;;;;;;;;;5028546;28;20040;-67
2022/05/05 02:39:35;;;;;;;7.88;4.22;;;;;;;;;;5039910;28;20485;-67
2022/05/05 02:42:07;;;;;;;6.60;3.80;;;;;;;;;;5031216;28;20037;-68
2022/05/05 02:44:33;;;;;;;5.28;3.75;;;;;;;;;;5051081;28;20021;-67
2022/05/05 02:47:00;;;;;;;5.38;3.88;;;;;;;;;;5024925;28;20095;-68
2022/05/05 02:49:29;;;;;;;5.82;4.30;;;;;;;;;;5050045;28;20028;-68
2022/05/05 02:51:55;;;;;;;9.25;4.82;;;;;;;;;;5042528;28;20498;-68
2022/05/05 02:57:10;;;;;;;8.20;5.00;;;;;;;;;;5021808;28;20036;-67
2022/05/05 02:59:36;;;;;;;7.43;4.00;;;;;;;;;;5003931;28;20054;-68
2022/05/05 03:02:02;;;;;;;5.03;4.10;;;;;;;;;;5001575;28;20024;-67
2022/05/05 03:04:28;;;;;;;7.50;4.90;;;;;;;;;;5021277;28;20160;-68
2022/05/05 03:06:56;;;;;;;5.18;4.05;;;;;;;;;;5043456;28;20032;-68
2022/05/05 03:09:27;;;;;;;8.13;4.47;;;;;;;;;;5038379;28;20068;-68
2022/05/05 03:11:56;;;;;;;9.05;5.30;;;;;;;;;;5031055;28;20402;-67
2022/05/05 03:14:31;;;;;;;9.00;5.22;;;;;;;;;;4991855;28;20530;-67
2022/05/05 03:16:58;;;;;;;8.80;5.45;;;;;;;;;;5044550;28;20033;-68
2022/05/05 03:19:26;;;;;;;7.63;5.60;;;;;;;;;;5039483;28;20112;-68
2022/05/05 03:21:52;;;;;;;10.85;5.72;;;;;;;;;;5042158;28;20025;-67
2022/05/05 03:24:18;;;;;;;9.63;5.13;;;;;;;;;;5044772;28;20112;-67
2022/05/05 03:26:45;;;;;;;9.57;5.82;;;;;;;;;;5029952;28;20116;-68
2022/05/05 03:29:11;;;;;;;8.52;5.68;;;;;;;;;;5042527;28;20037;-66
2022/05/05 03:31:37;;;;;;;8.38;6.07;;;;;;;;;;5052601;28;20116;-67
2022/05/05 03:34:04;;;;;;;7.05;4.90;;;;;;;;;;5044610;28;20024;-67
2022/05/05 03:36:30;;;;;;;6.05;4.50;;;;;;;;;;5035602;28;20026;-68
2022/05/05 03:38:56;;;;;;;9.32;4.35;;;;;;;;;;5035391;28;20057;-67
2022/05/05 03:41:22;;;;;;;6.90;4.32;;;;;;;;;;5019179;28;20022;-68
2022/05/05 03:43:48;;;;;;;12.10;4.47;;;;;;;;;;5042365;28;20536;-68
2022/05/05 03:46:15;;;;;;;9.77;4.30;;;;;;;;;;5046097;28;20021;-68
2022/05/05 03:48:41;;;;;;;10.73;5.22;;;;;;;;;;5041119;28;20025;-69
2022/05/05 03:51:07;;;;;;;6.75;4.45;;;;;;;;;;5022014;28;20497;-68
2022/05/05 03:53:33;;;;;;;8.55;4.90;;;;;;;;;;5023517;28;20306;-67
2022/05/05 03:55:59;;;;;;;8.05;5.03;;;;;;;;;;5036379;28;20074;-66
2022/05/05 03:58:28;;;;;;;7.57;5.65;;;;;;;;;;5028180;28;20017;-68
2022/05/05 04:00:55;;;;;;;12.23;5.70;;;;;;;;;;5036562;28;20024;-68
2022/05/05 04:03:30;;;;;;;10.20;5.30;;;;;;;;;;5046545;28;20032;-67
2022/05/05 04:05:57;;;;;;;7.47;4.53;;;;;;;;;;5047420;28;20025;-69
2022/05/05 04:08:23;;;;;;;7.70;5.15;;;;;;;;;;5038122;28;20048;-68
2022/05/05 04:10:49;;;;;;;8.18;5.15;;;;;;;;;;5021377;28;20487;-67
2022/05/05 04:13:15;;;;;;;12.18;5.47;;;;;;;;;;5035068;28;20037;-67
2022/05/05 04:15:41;;;;;;;8.68;5.85;;;;;;;;;;5037927;28;20056;-67
2022/05/05 04:18:07;;;;;;;7.93;5.35;;;;;;;;;;5029201;28;20035;-68
2022/05/05 04:20:33;;;;;;;10.82;5.75;;;;;;;;;;5052414;28;20356;-68
2022/05/05 04:22:59;;;;;;;12.10;6.15;;;;;;;;;;5031109;28;20042;-68
2022/05/05 04:25:25;;;;;;;11.68;5.65;;;;;;;;;;5026503;28;20021;-68
2022/05/05 04:27:51;;;;;;;8.35;5.57;;;;;;;;;;5038134;28;20033;-68
2022/05/05 04:30:17;;;;;;;11.77;5.45;;;;;;;;;;5048734;28;20082;-67
2022/05/05 04:32:44;;;;;;;8.70;4.63;;;;;;;;;;5033076;28;20451;-68
2022/05/05 04:35:11;;;;;;;9.50;5.75;;;;;;;;;;5040845;28;20036;-67
2022/05/05 04:37:38;;;;;;;10.40;5.47;;;;;;;;;;5014204;28;20101;-69
2022/05/05 04:40:04;;;;;;;8.50;5.18;;;;;;;;;;5026507;28;20584;-68
2022/05/05 04:42:30;;;;;;;7.38;5.25;;;;;;;;;;5015636;28;20032;-67
2022/05/05 04:44:56;;;;;;;7.30;5.20;;;;;;;;;;5019938;28;20017;-69
2022/05/05 04:47:22;;;;;;;7.38;5.28;;;;;;;;;;5040264;28;20108;-68
2022/05/05 04:49:48;;;;;;;8.55;5.13;;;;;;;;;;5025572;28;20465;-68
2022/05/05 04:52:14;;;;;;;9.65;4.55;;;;;;;;;;5035481;28;20018;-67
2022/05/05 04:54:40;;;;;;;11.30;5.43;;;;;;;;;;5036344;28;20065;-68
2022/05/05 04:57:06;;;;;;;12.32;4.97;;;;;;;;;;5047887;28;20028;-67
2022/05/05 04:59:32;;;;;;;7.38;4.60;;;;;;;;;;5031354;28;20382;-67
2022/05/05 05:01:58;;;;;;;7.13;4.78;;;;;;;;;;5014580;28;20116;-68
2022/05/05 05:04:24;;;;;;;11.77;5.50;;;;;;;;;;5049303;28;20029;-67
2022/05/05 05:06:50;;;;;;;7.57;5.03;;;;;;;;;;5032128;28;20017;-67
2022/05/05 05:09:16;;;;;;;17.75;5.65;;;;;;;;;;5012872;28;20030;-68
2022/05/05 05:11:42;;;;;;;9.25;5.32;;;;;;;;;;5014287;28;20028;-68
2022/05/05 05:14:08;;;;;;;11.82;5.20;;;;;;;;;;5014521;28;20112;-67
2022/05/05 05:16:34;;;;;;;13.38;5.80;;;;;;;;;;5032500;28;20049;-67
2022/05/05 05:19:01;;;;;;;9.65;5.47;;;;;;;;;;5022629;28;20432;-68
2022/05/05 05:21:27;;;;;;;8.55;5.50;;;;;;;;;;5048660;28;20025;-67
2022/05/05 05:23:53;;;;;;;12.25;5.00;;;;;;;;;;5014870;28;20025;-67
2022/05/05 05:26:19;;;;;;;7.90;5.18;;;;;;;;;;5033033;28;20021;-68
2022/05/05 05:28:47;;;;;;;8.73;5.55;;;;;;;;;;5018076;28;20076;-68
2022/05/05 05:31:13;;;;;;;13.13;5.43;;;;;;;;;;5019399;28;20029;-70
2022/05/05 05:33:39;;;;;;;10.45;6.30;;;;;;;;;;5022725;28;20029;-68
2022/05/05 05:36:06;;;;;;;13.27;6.07;;;;;;;;;;5022141;28;20020;-68
2022/05/05 05:38:32;;;;;;;8.25;5.15;;;;;;;;;;5032546;28;20044;-68
2022/05/05 05:40:58;;;;;;;10.00;6.93;;;;;;;;;;5045887;28;20028;-68
2022/05/05 05:43:24;;;;;;;11.13;6.30;;;;;;;;;;5024955;28;20029;-68
2022/05/05 05:45:50;;;;;;;11.02;6.25;;;;;;;;;;5047161;28;20027;-68
2022/05/05 05:48:16;;;;;;;14.63;6.55;;;;;;;;;;5014781;28;20021;-69
2022/05/05 05:50:42;;;;;;;13.38;6.07;;;;;;;;;;5025423;28;20486;-68
2022/05/05 05:53:11;;;;;;;13.95;6.78;;;;;;;;;;5033428;28;20025;-68
2022/05/05 05:55:37;;;;;;;10.30;6.50;;;;;;;;;;5030889;28;20033;-68
2022/05/05 05:58:03;;;;;;;8.70;5.55;;;;;;;;;;5013583;28;20048;-67
2022/05/05 06:00:30;;;;;;;10.38;6.28;;;;;;;;;;5011221;28;20468;-69
2022/05/05 06:05:45;;;;;;;18.05;6.45;;;;;;;;;;5018929;28;20414;-69
2022/05/05 06:08:13;;;;;;;8.77;6.25;;;;;;;;;;5008416;28;20025;-68
2022/05/05 06:10:39;;;;;;;14.00;7.22;;;;;;;;;;5033416;28;20162;-68
2022/05/05 06:13:06;;;;;;;18.98;6.80;;;;;;;;;;5026362;28;20022;-68
2022/05/05 06:15:32;;;;;;;18.92;7.40;;;;;;;;;;5049370;28;20492;-68
2022/05/05 06:17:58;;;;;;;13.15;6.88;;;;;;;;;;5032342;28;20021;-68
2022/05/05 06:20:24;;;;;;;14.35;6.80;;;;;;;;;;5023631;28;20029;-68
2022/05/05 06:22:51;;;;;;;11.48;6.75;;;;;;;;;;5043478;28;20032;-68
2022/05/05 06:25:19;;;;;;;12.88;6.97;;;;;;;;;;5071175;23;20136;-68
2022/05/05 06:28:19;;;;;;;13.40;7.57;;;;;;;;;;5053807;28;20020;-66
2022/05/05 06:31:11;;;;;;;13.63;7.80;;;;;;;;;;5053676;28;20143;-66
2022/05/05 06:33:38;;;;;;;15.90;7.03;;;;;;;;;;5051036;28;20086;-67
2022/05/05 06:36:04;;;;;;;15.52;8.05;;;;;;;;;;5049501;28;20112;-67
2022/05/05 06:38:32;;;;;;;20.40;8.23;;;;;;;;;;5049887;28;20096;-67
2022/05/05 06:40:58;;;;;;;19.25;8.20;;;;;;;;;;5030507;28;20029;-67
2022/05/05 06:43:24;;;;;;;14.27;8.45;;;;;;;;;;5049960;28;20029;-67
2022/05/05 06:45:50;;;;;;;20.15;9.48;;;;;;;;;;5049839;28;20442;-67
2022/05/05 06:48:16;;;;;;;14.43;8.18;;;;;;;;;;5050017;28;20021;-68
2022/05/05 06:50:42;;;;;;;12.75;8.38;;;;;;;;;;5049130;28;20103;-67
2022/05/05 06:53:08;;;;;;;16.10;8.38;;;;;;;;;;5050009;28;20032;-67
2022/05/05 06:55:34;;;;;;;18.45;9.25;;;;;;;;;;5047960;28;20032;-67
2022/05/05 06:58:00;;;;;;;20.95;8.82;;;;;;;;;;5049815;28;20021;-67
2022/05/05 07:01:51;;;;;;;16.17;8.40;;;;;;;;;;5049621;28;20037;-67
2022/05/05 07:03:15;;;;;;;16.02;8.07;;;;;;;;;;5049700;28;20039;-67
2022/05/05 07:05:41;;;;;;;20.13;9.23;;;;;;;;;;5049446;28;20024;-67
2022/05/05 07:08:07;;;;;;;17.88;8.55;;;;;;;;;;5047810;28;20082;-67
2022/05/05 07:13:18;;;;;;;19.60;8.40;;;;;;;;;;5049720;28;20036;-67
2022/05/05 07:15:44;;;;;;;16.70;8.80;;;;;;;;;;5049428;28;20055;-67
2022/05/05 07:18:10;;;;;;;30.65;9.35;;;;;;;;;;5049409;28;20406;-67
2022/05/05 07:20:36;;;;;;;18.30;9.25;;;;;;;;;;5049324;28;20036;-67
2022/05/05 07:23:04;;;;;;;18.60;8.75;;;;;;;;;;5049368;28;20029;-67
2022/05/05 07:25:30;;;;;;;16.48;9.40;;;;;;;;;;5048376;28;20048;-67
2022/05/05 07:28:00;;;;;;;18.10;9.00;;;;;;;;;;5049549;28;20466;-67
2022/05/05 07:30:26;;;;;;;17.67;9.45;;;;;;;;;;5049526;28;20039;-67
2022/05/05 07:32:52;;;;;;;18.45;8.95;;;;;;;;;;5049145;28;20056;-68
2022/05/05 07:35:18;;;;;;;17.88;9.90;;;;;;;;;;5049331;28;20048;-67
2022/05/05 07:37:44;;;;;;;14.60;8.50;;;;;;;;;;5048994;28;20096;-67
2022/05/05 07:40:11;;;;;;;24.42;10.20;;;;;;;;;;5049339;28;20021;-67
2022/05/05 07:42:37;;;;;;;14.23;8.65;;;;;;;;;;5046215;28;20389;-67
2022/05/05 07:45:04;;;;;;;19.08;9.10;;;;;;;;;;5049103;28;20079;-67
2022/05/05 07:47:30;;;;;;;15.52;9.27;;;;;;;;;;5047981;28;20500;-67
2022/05/05 07:49:56;;;;;;;18.60;8.75;;;;;;;;;;5047581;28;20097;-66
2022/05/05 07:52:22;;;;;;;19.80;9.30;;;;;;;;;;5048850;28;20539;-67
2022/05/05 07:54:48;;;;;;;16.15;8.90;;;;;;;;;;5049323;28;20380;-66
2022/05/05 07:57:17;;;;;;;14.73;9.20;;;;;;;;;;5029539;28;20037;-67
2022/05/05 07:59:44;;;;;;;14.10;8.00;;;;;;;;;;5048772;28;20166;-66
2022/05/05 08:02:13;;;;;;;21.27;9.35;;;;;;;;;;5051531;28;20092;-67
2022/05/05 08:04:40;;;;;;;15.70;9.18;;;;;;;;;;5052508;28;20021;-66
2022/05/05 08:07:06;;;;;;;22.92;9.68;;;;;;;;;;5052512;28;20098;-67
2022/05/05 08:09:32;;;;;;;17.90;9.15;;;;;;;;;;5053187;28;20033;-67
2022/05/05 08:11:59;;;;;;;15.95;8.77;;;;;;;;;;5051676;28;20402;-67
2022/05/05 08:14:26;;;;;;;17.33;8.68;;;;;;;;;;5052729;28;20091;-68
2022/05/05 08:16:52;;;;;;;14.15;9.30;;;;;;;;;;5053013;28;20105;-67
2022/05/05 08:19:18;;;;;;;15.95;8.70;;;;;;;;;;5034860;28;20126;-67
2022/05/05 08:21:44;;;;;;;14.90;9.20;;;;;;;;;;5052473;28;20120;-68
2022/05/05 08:29:39;;;;;;;17.27;9.15;;;;;;;;;;5052727;28;20032;-67
2022/05/05 08:32:05;;;;;;;14.80;9.15;;;;;;;;;;5034556;28;20032;-67
2022/05/05 08:34:31;;;;;;;16.70;10.13;;;;;;;;;;5052123;28;20501;-67
2022/05/05 08:36:57;;;;;;;14.10;8.75;;;;;;;;;;5052587;28;20025;-67
2022/05/05 08:39:23;;;;;;;15.27;9.15;;;;;;;;;;5034800;28;20036;-67
2022/05/05 08:41:49;;;;;;;16.00;8.57;;;;;;;;;;5032701;28;20025;-68
2022/05/05 08:44:15;;;;;;;15.60;8.77;;;;;;;;;;5052404;28;20107;-66
2022/05/05 08:46:41;;;;;;;15.45;8.02;;;;;;;;;;5051862;28;20021;-68
2022/05/05 08:49:08;;;;;;;10.13;7.38;;;;;;;;;;5052450;28;20025;-67
2022/05/05 08:51:38;;;;;;;12.93;8.27;;;;;;;;;;5050693;28;20051;-67
2022/05/05 08:54:07;;;;;;;10.18;7.32;;;;;;;;;;5052120;28;20027;-67
2022/05/05 08:56:33;;;;;;;13.93;7.80;;;;;;;;;;5050278;28;20377;-67
2022/05/05 08:58:59;;;;;;;12.02;7.13;;;;;;;;;;5051784;28;20550;-68
2022/05/05 09:01:27;;;;;;;11.75;7.22;;;;;;;;;;5052048;28;20096;-67
2022/05/05 09:03:53;;;;;;;11.75;7.47;;;;;;;;;;5051940;28;20048;-67
2022/05/05 09:06:19;;;;;;;14.80;7.60;;;;;;;;;;5051418;28;20036;-67
2022/05/05 09:08:45;;;;;;;12.32;6.65;;;;;;;;;;5033596;28;20329;-67
2022/05/05 09:11:18;;;;;;;13.82;8.25;;;;;;;;;;5051246;28;20025;-67
2022/05/05 09:13:44;;;;;;;15.63;8.25;;;;;;;;;;5050753;28;20029;-67
2022/05/05 09:16:10;;;;;;;14.00;7.57;;;;;;;;;;5051349;28;20028;-68
2022/05/05 09:18:37;;;;;;;15.07;8.38;;;;;;;;;;5051533;28;20082;-67
2022/05/05 09:21:05;;;;;;;12.93;7.68;;;;;;;;;;5033677;28;20103;-67
2022/05/05 09:23:31;;;;;;;14.52;8.38;;;;;;;;;;5051598;28;20017;-67
2022/05/05 09:25:57;;;;;;;15.85;9.00;;;;;;;;;;5032363;28;20363;-66
2022/05/05 09:28:24;;;;;;;20.75;7.95;;;;;;;;;;5050327;28;20040;-67
2022/05/05 09:30:54;;;;;;;12.05;7.95;;;;;;;;;;5051497;28;20029;-67
2022/05/05 09:33:36;;;;;;;15.25;8.65;;;;;;;;;;5051381;28;20029;-67
2022/05/05 09:36:03;;;;;;;13.23;8.18;;;;;;;;;;5050598;28;20025;-67
2022/05/05 09:38:50;;;;;;;12.95;8.32;;;;;;;;;;5032937;28;20025;-67
2022/05/05 09:41:16;;;;;;;16.08;8.45;;;;;;;;;;5032783;28;20070;-67
2022/05/05 09:43:42;;;;;;;16.02;8.77;;;;;;;;;;5049483;28;20413;-67
2022/05/05 09:46:25;;;;;;;14.30;8.13;;;;;;;;;;5050692;28;20033;-67
2022/05/05 09:57:53;;;;;;;15.32;8.55;;;;;;;;;;5051654;28;20103;-67
2022/05/05 10:05:42;;;;;;;13.15;7.75;;;;;;;;;;5049553;28;20174;-67
2022/05/05 10:08:09;;;;;;;12.98;8.73;;;;;;;;;;5049957;28;20048;-67
2022/05/05 10:10:35;;;;;;;11.20;7.28;;;;;;;;;;5050201;28;20037;-67
2022/05/05 10:13:02;;;;;;;12.52;7.68;;;;;;;;;;5049504;28;20056;-67
2022/05/05 10:15:28;;;;;;;11.43;7.97;;;;;;;;;;5050184;28;20122;-67
2022/05/05 10:17:54;;;;;;;14.60;8.80;;;;;;;;;;5049855;28;20021;-67
2022/05/05 10:20:20;;;;;;;14.07;8.27;;;;;;;;;;5049869;28;20041;-67
2022/05/05 10:22:55;;;;;;;11.27;7.97;;;;;;;;;;5049893;28;20087;-66
2022/05/05 10:25:32;;;;;;;11.05;8.10;;;;;;;;;;5048907;28;20029;-68
2022/05/05 10:27:59;;;;;;;11.25;8.35;;;;;;;;;;5040869;28;20017;-67
2022/05/05 10:30:35;;;;;;;13.27;8.20;;;;;;;;;;5049693;28;20036;-67
2022/05/05 10:33:03;;;;;;;12.30;8.10;;;;;;;;;;5049838;28;20033;-67
2022/05/05 10:35:37;;;;;;;13.75;9.10;;;;;;;;;;5047700;28;20401;-67
2022/05/05 10:38:04;;;;;;;15.02;8.07;;;;;;;;;;5049688;28;20029;-67
2022/05/05 10:40:46;;;;;;;14.80;8.48;;;;;;;;;;5049354;28;20132;-67
2022/05/05 10:43:12;;;;;;;11.88;7.50;;;;;;;;;;5042295;28;20036;-67
2022/05/05 10:45:38;;;;;;;14.32;8.32;;;;;;;;;;5048838;28;20029;-67
2022/05/05 10:48:07;;;;;;;12.32;8.60;;;;;;;;;;5049518;28;20374;-68
2022/05/05 10:50:39;;;;;;;12.27;7.95;;;;;;;;;;5049275;28;20505;-67
2022/05/05 10:53:05;;;;;;;14.57;7.22;;;;;;;;;;5050010;28;20021;-66
2022/05/05 10:55:40;;;;;;;12.73;7.15;;;;;;;;;;5047668;28;20056;-67
2022/05/05 10:58:09;;;;;;;11.20;7.90;;;;;;;;;;5041703;28;20036;-67
2022/05/05 11:00:59;;;;;;;13.00;7.07;;;;;;;;;;5049688;28;20075;-68
2022/05/05 11:03:26;;;;;;;16.17;8.63;;;;;;;;;;5049749;28;20033;-68
2022/05/05 11:06:11;;;;;;;10.30;6.38;;;;;;;;;;5047596;28;20485;-67
2022/05/05 11:08:37;;;;;;;13.93;7.72;;;;;;;;;;5049309;28;20047;-67
2022/05/05 11:14:02;;;;;;;11.93;7.65;;;;;;;;;;5044293;28;20039;-68
2022/05/05 11:22:15;;;;;;;10.10;6.47;;;;;;;;;;4987560;28;20030;-68
2022/05/05 11:24:46;;;;;;;11.57;7.72;;;;;;;;;;5036130;28;20059;-67
2022/05/05 11:27:13;;;;;;;10.50;7.03;;;;;;;;;;5048446;28;20037;-67
2022/05/05 11:29:39;;;;;;;15.30;8.00;;;;;;;;;;5048003;28;20033;-68
2022/05/05 11:32:06;;;;;;;12.30;7.75;;;;;;;;;;5049267;28;20074;-67
2022/05/05 11:34:33;;;;;;;10.45;6.72;;;;;;;;;;5031635;28;20532;-67
2022/05/05 11:37:00;;;;;;;20.52;5.95;;;;;;;;;;5051119;28;20060;-68
2022/05/05 11:39:26;;;;;;;9.98;5.95;;;;;;;;;;5035394;28;20037;-68
2022/05/05 11:41:59;;;;;;;9.45;5.53;;;;;;;;;;5052687;28;20104;-67
2022/05/05 11:44:27;;;;;;;10.98;5.40;;;;;;;;;;5052197;28;20072;-67
2022/05/05 11:46:53;;;;;;;7.43;5.35;;;;;;;;;;5052375;28;20032;-68
2022/05/05 11:49:20;;;;;;;15.52;7.85;;;;;;;;;;5035081;28;20064;-68
2022/05/05 11:51:46;;;;;;;10.57;7.57;;;;;;;;;;5052276;28;20041;-68
2022/05/05 11:54:14;;;;;;;16.90;7.05;;;;;;;;;;5053092;28;20086;-68
2022/05/05 11:56:51;;;;;;;10.18;7.18;;;;;;;;;;5050424;28;20167;-68
2022/05/05 12:02:04;;;;;;;10.20;7.18;;;;;;;;;;5052839;28;20088;-68
2022/05/05 12:04:30;;;;;;;11.95;7.95;;;;;;;;;;5054401;28;20040;-68
2022/05/05 12:06:58;;;;;;;19.20;7.50;;;;;;;;;;5053369;28;20032;-68
2022/05/05 12:09:24;;;;;;;14.75;8.60;;;;;;;;;;5039589;28;20423;-67
2022/05/05 12:11:50;;;;;;;12.30;7.68;;;;;;;;;;5053947;28;20025;-68
2022/05/05 12:14:20;;;;;;;9.82;7.18;;;;;;;;;;5053401;28;20067;-67
2022/05/05 12:16:46;;;;;;;11.05;7.15;;;;;;;;;;5034274;28;20067;-67
2022/05/05 12:19:17;;;;;;;12.57;6.00;;;;;;;;;;5052821;28;20025;-68
2022/05/05 12:21:53;;;;;;;12.95;7.18;;;;;;;;;;5052625;28;20024;-67
2022/05/05 12:24:23;;;;;;;11.70;7.60;;;;;;;;;;5034546;28;20083;-67
2022/05/05 12:26:49;;;;;;;12.27;7.53;;;;;;;;;;5051746;28;20083;-68
2022/05/05 12:29:17;;;;;;;13.95;7.60;;;;;;;;;;5051511;28;20037;-68
2022/05/05 12:31:55;;;;;;;17.23;6.93;;;;;;;;;;5048384;28;20029;-67
2022/05/05 12:34:25;;;;;;;10.75;6.93;;;;;;;;;;5045661;28;20025;-67
2022/05/05 12:37:11;;;;;;;15.50;7.68;;;;;;;;;;5018085;28;20487;-68
2022/05/05 12:39:50;;;;;;;19.02;9.93;;;;;;;;;;5018363;28;20040;-68
2022/05/05 12:42:16;;;;;;;17.35;10.30;;;;;;;;;;5035973;28;20387;-68
2022/05/05 12:44:43;;;;;;;15.70;10.57;;;;;;;;;;5067262;22;20045;-66
2022/05/05 12:47:09;;;;;;;16.20;10.90;;;;;;;;;;5006797;28;20113;-65
2022/05/05 12:49:36;;;;;;;18.58;10.82;;;;;;;;;;5020953;28;20028;-66
2022/05/05 12:52:03;;;;;;;13.65;9.75;;;;;;;;;;5010593;28;20132;-66
2022/05/05 12:59:58;;;;;;;16.00;9.40;;;;;;;;;;5010831;28;20169;-65
2022/05/05 13:02:24;;;;;;;16.45;9.48;;;;;;;;;;5020357;28;20041;-66
2022/05/05 13:04:51;;;;;;;11.95;8.30;;;;;;;;;;5003879;28;20023;-65
2022/05/05 13:07:17;;;;;;;13.75;8.57;;;;;;;;;;5006606;28;20029;-65
2022/05/05 13:09:43;;;;;;;13.10;7.68;;;;;;;;;;5028094;28;20026;-66
2022/05/05 13:12:09;;;;;;;11.55;8.32;;;;;;;;;;5005283;28;20172;-66
2022/05/05 13:14:35;;;;;;;17.00;10.35;;;;;;;;;;5011704;28;20030;-66
2022/05/05 13:17:03;;;;;;;17.67;11.75;;;;;;;;;;5003872;28;20029;-66
2022/05/05 13:19:29;;;;;;;14.95;9.10;;;;;;;;;;5006263;28;20105;-65
2022/05/05 13:21:56;;;;;;;17.98;8.38;;;;;;;;;;5008785;28;20076;-66
2022/05/05 13:24:22;;;;;;;16.23;8.88;;;;;;;;;;5018468;28;20443;-66
2022/05/05 13:26:48;;;;;;;11.98;7.53;;;;;;;;;;5003224;28;20088;-66
2022/05/05 13:29:23;;;;;;;17.58;8.57;;;;;;;;;;5002274;28;20109;-66
2022/05/05 13:31:50;;;;;;;11.50;8.23;;;;;;;;;;5011835;28;20105;-65
2022/05/05 13:34:16;;;;;;;12.50;7.20;;;;;;;;;;5027043;28;20120;-65
2022/05/05 13:36:42;;;;;;;15.60;7.50;;;;;;;;;;5003077;28;20113;-67
2022/05/05 13:39:08;;;;;;;21.23;8.02;;;;;;;;;;5011876;28;20040;-66
2022/05/05 13:41:34;;;;;;;12.77;8.43;;;;;;;;;;5023500;28;20018;-66
2022/05/05 13:44:00;;;;;;;16.35;9.45;;;;;;;;;;5009463;28;20548;-66
2022/05/05 13:46:28;;;;;;;19.50;11.63;;;;;;;;;;5021778;28;20121;-66
2022/05/05 13:48:54;;;;;;;18.88;12.25;;;;;;;;;;5008431;28;20026;-65
2022/05/05 13:51:20;;;;;;;19.77;11.73;;;;;;;;;;5011660;28;20270;-66
2022/05/05 13:53:46;;;;;;;22.58;12.57;;;;;;;;;;5013114;28;20112;-66
2022/05/05 13:56:13;;;;;;;18.13;11.40;;;;;;;;;;5026359;28;20474;-66
2022/05/05 13:58:39;;;;;;;18.63;12.55;;;;;;;;;;5013196;28;20022;-66
2022/05/05 14:01:41;;;;;;;25.73;13.15;;;;;;;;;;5012017;28;20129;-66
2022/05/05 14:04:07;;;;;;;20.25;13.18;;;;;;;;;;5014110;28;20483;-65
2022/05/05 14:06:33;;;;;;;22.67;12.90;;;;;;;;;;5027720;28;20060;-65
2022/05/05 14:14:28;;;;;;;17.20;11.00;;;;;;;;;;5004698;28;20133;-66
2022/05/05 14:16:54;;;;;;;18.92;10.27;;;;;;;;;;5000567;28;20046;-66
2022/05/05 14:19:21;;;;;;;17.67;8.77;;;;;;;;;;4991425;28;20029;-65
2022/05/05 14:21:46;;;;;;;19.55;9.30;;;;;;;;;;5000008;28;20064;-65
2022/05/05 14:24:12;;;;;;;14.13;8.50;;;;;;;;;;5010999;28;20053;-66
2022/05/05 14:26:39;;;;;;;13.45;6.82;;;;;;;;;;5009965;28;20387;-66
2022/05/05 14:29:05;;;;;;;11.18;6.45;;;;;;;;;;4999472;28;20034;-66
2022/05/05 14:31:31;;;;;;;13.70;6.50;;;;;;;;;;5007037;28;20053;-66
2022/05/05 14:33:57;;;;;;;8.38;5.70;;;;;;;;;;5007021;28;20092;-66
2022/05/05 14:36:24;;;;;;;11.93;6.93;;;;;;;;;;5010075;28;20057;-66
2022/05/05 14:38:50;;;;;;;14.35;7.70;;;;;;;;;;5009771;28;20080;-66
2022/05/05 14:41:16;;;;;;;20.98;9.52;;;;;;;;;;5003128;28;20017;-66
2022/05/05 14:43:42;;;;;;;15.23;10.13;;;;;;;;;;4994706;28;20099;-65
2022/05/05 14:46:08;;;;;;;14.27;9.88;;;;;;;;;;5005456;28;20030;-65
2022/05/05 14:48:34;;;;;;;12.48;8.13;;;;;;;;;;5005884;28;20033;-65
2022/05/05 14:51:00;;;;;;;15.30;9.63;;;;;;;;;;5008664;28;20041;-65
2022/05/05 14:53:26;;;;;;;11.07;8.00;;;;;;;;;;4999057;28;20080;-65
2022/05/05 14:55:52;;;;;;;17.95;8.85;;;;;;;;;;5013137;28;20026;-65
2022/05/05 14:58:18;;;;;;;13.18;8.32;;;;;;;;;;5009900;28;20013;-65
2022/05/05 15:00:44;;;;;;;11.80;7.30;;;;;;;;;;5009280;28;20395;-65
2022/05/05 15:03:10;;;;;;;19.83;9.25;;;;;;;;;;5010258;28;20033;-65
2022/05/05 15:05:36;;;;;;;21.73;11.55;;;;;;;;;;5010323;28;20105;-65
2022/05/05 15:08:03;;;;;;;22.45;11.85;;;;;;;;;;4999474;28;20547;-66
2022/05/05 15:10:29;;;;;;;17.85;11.80;;;;;;;;;;5014481;28;20073;-65
2022/05/05 15:12:55;;;;;;;17.48;10.15;;;;;;;;;;5015121;28;20520;-65
2022/05/05 15:15:21;;;;;;;17.25;11.02;;;;;;;;;;4998113;28;20115;-65
2022/05/05 15:17:47;;;;;;;30.98;11.90;;;;;;;;;;5006118;28;20468;-65
2022/05/05 15:20:13;;;;;;;22.20;11.40;;;;;;;;;;5002116;28;20069;-65
2022/05/05 15:22:39;;;;;;;17.13;11.60;;;;;;;;;;5001959;28;20033;-66
2022/05/05 15:25:06;;;;;;;18.77;12.43;;;;;;;;;;4999514;28;20018;-65
2022/05/05 15:27:34;;;;;;;22.13;13.05;;;;;;;;;;5016022;28;20022;-65
2022/05/05 15:30:01;;;;;;;20.15;13.27;;;;;;;;;;5001204;28;20033;-65
2022/05/05 15:32:30;;;;;;;21.02;11.40;;;;;;;;;;5008759;28;20041;-65
2022/05/05 15:34:57;;;;;;;18.85;11.93;;;;;;;;;;5001818;28;20023;-65